createdAt,value
2024-01-08T00:00:42.090Z,101996.47
2024-01-08T00:03:28.443Z,101999.09
2024-01-08T00:05:55.286Z,102001.72
2024-01-08T00:08:21.864Z,102006.13
2024-01-08T00:10:48.611Z,102005.28
2024-01-08T00:13:14.963Z,102010.53
2024-01-08T00:15:41.701Z,101996.50
2024-01-08T00:18:08.586Z,102009.59
2024-01-08T00:20:35.460Z,102006.09
2024-01-08T00:23:01.920Z,102020.25
2024-01-08T00:25:28.716Z,102020.19
2024-01-08T00:27:55.966Z,102017.63
2024-01-08T00:30:22.668Z,102014.91
2024-01-08T00:32:49.517Z,102011.38
2024-01-08T00:35:16.623Z,102009.63
2024-01-08T00:37:43.253Z,102011.34
2024-01-08T00:40:11.408Z,102015.78
2024-01-08T00:42:39.114Z,102022.78
2024-01-08T00:45:07.499Z,102028.94
2024-01-08T00:47:34.573Z,102029.69
2024-01-08T00:50:02.514Z,102028.03
2024-01-08T00:52:29.951Z,102028.91
2024-01-08T00:55:02.099Z,102028.06
2024-01-08T00:57:28.446Z,102035.91
2024-01-08T00:59:55.040Z,102027.09
2024-01-08T01:02:21.475Z,102034.16
2024-01-08T01:04:48.439Z,102036.81
2024-01-08T01:07:14.911Z,102037.66
2024-01-08T01:09:41.610Z,102035.81
2024-01-08T01:12:08.852Z,102034.06
2024-01-08T01:14:36.023Z,102031.53
2024-01-08T01:17:02.695Z,102044.66
2024-01-08T01:19:29.372Z,102050.53
2024-01-08T01:21:55.774Z,102042.69
2024-01-08T01:24:22.466Z,102044.53
2024-01-08T01:26:48.797Z,102046.44
2024-01-08T01:29:15.654Z,102049.91
2024-01-08T01:31:42.045Z,102053.41
2024-01-08T01:34:11.231Z,102056.97
2024-01-08T01:36:38.346Z,102067.50
2024-01-08T01:39:05.824Z,102063.13
2024-01-08T01:41:32.990Z,102066.59
2024-01-08T01:44:00.373Z,102070.06
2024-01-08T01:46:47.063Z,102072.69
2024-01-08T01:49:16.513Z,102072.72
2024-01-08T01:51:44.797Z,102073.56
2024-01-08T01:54:16.773Z,102081.50
2024-01-08T01:56:51.541Z,102083.25
2024-01-08T01:59:18.857Z,102073.63
2024-01-08T02:01:45.802Z,102071.84
2024-01-08T02:04:15.245Z,102078.84
2024-01-08T02:06:43.804Z,102085.91
2024-01-08T02:09:14.046Z,102091.19
2024-01-08T02:11:40.767Z,102089.41
2024-01-08T02:14:07.437Z,102086.78
2024-01-08T02:16:35.409Z,102085.03
2024-01-08T02:19:02.565Z,102088.53
2024-01-08T02:21:29.017Z,102100.81
2024-01-08T02:23:55.715Z,102088.53
2024-01-08T02:26:22.364Z,102092.91
2024-01-08T02:28:49.139Z,102099.03
2024-01-08T02:31:15.484Z,102106.91
2024-01-08T02:33:42.121Z,102106.91
2024-01-08T02:36:08.851Z,102114.81
2024-01-08T02:38:35.801Z,102117.44
2024-01-08T02:41:03.131Z,102109.56
2024-01-08T02:43:30.040Z,102117.44
2024-01-08T02:45:56.308Z,102119.19
2024-01-08T02:48:23.083Z,102113.94
2024-01-08T02:50:49.547Z,102109.53
2024-01-08T02:53:16.443Z,102107.81
2024-01-08T02:55:42.770Z,102115.69
2024-01-08T02:58:09.667Z,102112.97
2024-01-08T03:00:36.178Z,102114.78
2024-01-08T03:03:03.095Z,102115.47
2024-01-08T03:05:29.662Z,102115.53
2024-01-08T03:07:56.362Z,102119.06
2024-01-08T03:10:22.787Z,102115.69
2024-01-08T03:12:49.513Z,102115.69
2024-01-08T03:15:15.956Z,102124.44
2024-01-08T03:17:42.923Z,102130.50
2024-01-08T03:20:10.459Z,102121.72
2024-01-08T03:22:39.005Z,102128.81
2024-01-08T03:25:05.974Z,102141.03
2024-01-08T03:27:32.686Z,102142.00
2024-01-08T03:29:58.974Z,102141.13
2024-01-08T03:32:26.168Z,102142.84
2024-01-08T03:34:52.618Z,102141.03
2024-01-08T03:37:19.220Z,102147.25
2024-01-08T03:39:45.623Z,102142.84
2024-01-08T03:42:12.357Z,102152.44
2024-01-08T03:44:38.808Z,102154.13
2024-01-08T03:47:05.585Z,102155.13
2024-01-08T03:49:31.919Z,102165.66
2024-01-08T03:51:59.388Z,102164.78
2024-01-08T03:54:25.718Z,102161.28
2024-01-08T03:56:52.649Z,102163.03
2024-01-08T03:59:19.107Z,102159.53
2024-01-08T04:01:47.079Z,102170.03
2024-01-08T04:04:13.458Z,102170.94
2024-01-08T04:06:40.249Z,102171.81
2024-01-08T04:09:06.589Z,102184.09
2024-01-08T04:11:33.267Z,102179.69
2024-01-08T04:13:59.624Z,102179.66
2024-01-08T04:16:26.731Z,102189.31
2024-01-08T04:18:53.249Z,102184.00
2024-01-08T04:21:20.028Z,102188.44
2024-01-08T04:23:46.503Z,102189.28
2024-01-08T04:26:17.380Z,102186.72
2024-01-08T04:28:43.913Z,102196.38
2024-01-08T04:31:20.582Z,102199.00
2024-01-08T04:33:47.799Z,102197.25
2024-01-08T04:36:14.749Z,102205.13
2024-01-08T04:38:41.834Z,102209.44
2024-01-08T04:41:08.590Z,102206.88
2024-01-08T04:43:35.025Z,102207.69
2024-01-08T04:46:01.449Z,102207.75
2024-01-08T04:48:28.301Z,102208.63
2024-01-08T04:50:54.740Z,102213.03
2024-01-08T04:53:21.374Z,102220.00
2024-01-08T04:55:47.783Z,102217.31
2024-01-08T04:58:14.754Z,102224.34
2024-01-08T05:00:41.690Z,102221.75
2024-01-08T05:03:12.943Z,102225.19
2024-01-08T05:05:39.593Z,102218.28
2024-01-08T05:08:06.366Z,102224.41
2024-01-08T05:10:32.708Z,102214.75
2024-01-08T05:12:59.328Z,102227.94
2024-01-08T05:15:25.628Z,102234.03
2024-01-08T05:17:52.576Z,102227.06
2024-01-08T05:20:19.155Z,102227.06
2024-01-08T05:22:46.610Z,102227.03
2024-01-08T05:25:12.967Z,102241.00
2024-01-08T05:27:39.801Z,102231.44
2024-01-08T05:30:07.221Z,102235.78
2024-01-08T05:32:34.290Z,102241.97
2024-01-08T05:35:01.304Z,102237.56
2024-01-08T05:37:28.579Z,102234.94
2024-01-08T05:39:55.043Z,102234.03
2024-01-08T05:42:21.707Z,102244.59
2024-01-08T05:44:48.717Z,102243.72
2024-01-08T05:47:15.400Z,102248.13
2024-01-08T05:49:43.600Z,102248.13
2024-01-08T05:52:11.635Z,102253.34
2024-01-08T05:54:38.398Z,102246.28
2024-01-08T05:57:05.242Z,102244.59
2024-01-08T05:59:31.800Z,102250.72
2024-01-08T06:01:59.560Z,102248.94
2024-01-08T06:04:26.281Z,102254.19
2024-01-08T06:06:53.128Z,102271.56
2024-01-08T06:09:19.699Z,102274.22
2024-01-08T06:11:46.532Z,102261.94
2024-01-08T06:14:13.117Z,102269.84
2024-01-08T06:16:40.091Z,102283.00
2024-01-08T06:19:06.836Z,102288.31
2024-01-08T06:21:34.555Z,102291.84
2024-01-08T06:24:01.172Z,102293.50
2024-01-08T06:26:30.930Z,102288.31
2024-01-08T06:28:57.555Z,102286.56
2024-01-08T06:31:25.358Z,102283.81
2024-01-08T06:33:52.880Z,102292.75
2024-01-08T06:36:20.040Z,102293.47
2024-01-08T06:38:46.732Z,102304.78
2024-01-08T06:41:13.493Z,102299.63
2024-01-08T06:43:39.898Z,102289.91
2024-01-08T06:46:10.130Z,102302.91
2024-01-08T06:48:36.621Z,102310.00
2024-01-08T06:51:03.615Z,102312.63
2024-01-08T06:53:30.205Z,102329.34
2024-01-08T06:55:56.907Z,102325.97
2024-01-08T06:58:23.305Z,102332.00
2024-01-08T07:00:50.178Z,102337.13
2024-01-08T07:03:17.596Z,102337.16
2024-01-08T07:05:48.317Z,102332.63
2024-01-08T07:08:15.435Z,102348.41
2024-01-08T07:10:42.098Z,102344.81
2024-01-08T07:13:08.435Z,102343.84
2024-01-08T07:15:37.437Z,102349.59
2024-01-08T07:18:04.947Z,102342.69
2024-01-08T07:20:31.916Z,102347.78
2024-01-08T07:22:58.622Z,102349.41
2024-01-08T07:25:25.576Z,102356.28
2024-01-08T07:27:51.946Z,102358.78
2024-01-08T07:30:18.810Z,102355.34
2024-01-08T07:32:45.425Z,102364.94
2024-01-08T07:35:12.220Z,102368.63
2024-01-08T07:37:39.278Z,102372.72
2024-01-08T07:40:06.775Z,102379.88
2024-01-08T07:42:33.106Z,102371.50
2024-01-08T07:45:00.665Z,102372.44
2024-01-08T07:47:27.789Z,102380.31
2024-01-08T07:49:54.889Z,102378.53
2024-01-08T07:52:27.873Z,102385.44
2024-01-08T07:55:01.332Z,102381.75
2024-01-08T07:57:27.893Z,102393.91
2024-01-08T07:59:54.588Z,102402.53
2024-01-08T08:02:20.993Z,102393.16
2024-01-08T08:04:47.788Z,102406.97
2024-01-08T08:07:14.331Z,102402.69
2024-01-08T08:09:41.250Z,102409.91
2024-01-08T08:12:07.569Z,102411.75
2024-01-08T08:14:36.293Z,102423.53
2024-01-08T08:17:06.228Z,102423.81
2024-01-08T08:19:33.033Z,102426.53
2024-01-08T08:21:59.920Z,102427.44
2024-01-08T08:24:26.712Z,102424.00
2024-01-08T08:26:53.721Z,102430.16
2024-01-08T08:29:20.611Z,102425.78
2024-01-08T08:31:47.136Z,102435.31
2024-01-08T08:34:14.062Z,102429.13
2024-01-08T08:36:41.860Z,102452.72
2024-01-08T08:39:08.556Z,102438.81
2024-01-08T08:41:35.178Z,102449.44
2024-01-08T08:44:03.218Z,102452.06
2024-01-08T08:46:29.628Z,102446.63
2024-01-08T08:48:56.316Z,102473.03
2024-01-08T08:51:22.950Z,102465.28
2024-01-08T08:53:49.980Z,102466.81
2024-01-08T08:56:16.972Z,102468.72
2024-01-08T08:58:43.689Z,102477.53
2024-01-08T09:01:14.346Z,102485.41
2024-01-08T09:03:41.285Z,102476.00
2024-01-08T09:06:08.922Z,102482.94
2024-01-08T09:08:36.049Z,102493.50
2024-01-08T09:11:02.973Z,102491.78
2024-01-08T09:13:29.954Z,102501.47
2024-01-08T09:15:57.089Z,102510.19
2024-01-08T09:18:24.065Z,102512.53
2024-01-08T09:20:50.836Z,102523.34
2024-01-08T09:23:18.446Z,102520.78
2024-01-08T09:25:45.003Z,102526.97
2024-01-08T09:28:12.212Z,102526.78
2024-01-08T09:30:38.778Z,102516.13
2024-01-08T09:33:06.203Z,102521.41
2024-01-08T09:35:32.882Z,102532.09
2024-01-08T09:37:59.836Z,102533.00
2024-01-08T09:40:26.423Z,102536.31
2024-01-08T09:42:59.425Z,102529.13
2024-01-08T09:45:27.326Z,102521.50
2024-01-08T09:47:55.520Z,102538.03
2024-01-08T09:50:22.740Z,102539.03
2024-01-08T09:52:50.208Z,102541.50
2024-01-08T09:55:16.670Z,102529.16
2024-01-08T09:57:43.468Z,102528.22
2024-01-08T10:00:11.225Z,102531.75
2024-01-08T10:02:42.212Z,102532.78
2024-01-08T10:05:09.163Z,102536.50
2024-01-08T10:07:36.386Z,102530.38
2024-01-08T10:10:04.562Z,102536.53
2024-01-08T10:12:34.847Z,102539.31
2024-01-08T10:15:04.510Z,102530.38
2024-01-08T10:17:32.279Z,102529.53
2024-01-08T10:20:06.870Z,102520.81
2024-01-08T10:22:34.307Z,102525.25
2024-01-08T10:25:04.172Z,102525.34
2024-01-08T10:27:31.405Z,102528.00
2024-01-08T10:29:58.185Z,102532.41
2024-01-08T10:32:25.214Z,102542.06
2024-01-08T10:34:52.067Z,102544.75
2024-01-08T10:37:36.006Z,102548.25
2024-01-08T10:40:06.002Z,102545.63
2024-01-08T10:42:39.050Z,102531.47
2024-01-08T10:45:29.482Z,102530.66
2024-01-08T10:48:05.108Z,102540.41
2024-01-08T10:50:33.958Z,102524.63
2024-01-08T10:53:01.073Z,102535.09
2024-01-08T10:55:30.868Z,102544.63
2024-01-08T10:58:00.819Z,102540.31
2024-01-08T11:00:29.050Z,102528.91
2024-01-08T11:02:56.234Z,102533.38
2024-01-08T11:05:24.248Z,102536.94
2024-01-08T11:07:52.264Z,102537.88
2024-01-08T11:10:23.519Z,102537.00
2024-01-08T11:12:55.114Z,102543.13
2024-01-08T11:15:26.988Z,102543.03
2024-01-08T11:17:55.499Z,102540.47
2024-01-08T11:20:34.753Z,102538.75
2024-01-08T11:23:05.023Z,102541.41
2024-01-08T11:25:31.808Z,102534.38
2024-01-08T11:27:58.728Z,102535.22
2024-01-08T11:30:28.240Z,102534.34
2024-01-08T11:32:58.871Z,102546.63
2024-01-08T11:35:29.440Z,102538.72
2024-01-08T11:38:05.801Z,102546.66
2024-01-08T11:40:32.944Z,102548.44
2024-01-08T11:42:59.608Z,102538.75
2024-01-08T11:45:26.614Z,102531.66
2024-01-08T11:48:08.540Z,102525.53
2024-01-08T11:50:35.457Z,102533.47
2024-01-08T11:53:04.245Z,102532.53
2024-01-08T11:55:35.143Z,102534.31
2024-01-08T11:58:03.582Z,102542.19
2024-01-08T12:00:30.934Z,102537.81
2024-01-08T12:03:10.011Z,102551.88
2024-01-08T12:05:38.239Z,102550.19
2024-01-08T12:08:05.386Z,102549.31
2024-01-08T12:10:32.415Z,102554.63
2024-01-08T12:12:58.927Z,102552.84
2024-01-08T12:15:28.217Z,102555.50
2024-01-08T12:17:55.735Z,102559.88
2024-01-08T12:20:22.688Z,102561.66
2024-01-08T12:22:50.216Z,102557.22
2024-01-08T12:25:17.445Z,102552.81
2024-01-08T12:27:44.643Z,102568.66
2024-01-08T12:30:12.853Z,102566.91
2024-01-08T12:32:39.603Z,102560.75
2024-01-08T12:35:12.025Z,102571.28
2024-01-08T12:37:40.616Z,102566.00
2024-01-08T12:40:11.490Z,102575.69
2024-01-08T12:42:38.504Z,102571.28
2024-01-08T12:45:10.593Z,102583.59
2024-01-08T12:47:38.013Z,102584.50
2024-01-08T12:50:05.541Z,102587.09
2024-01-08T12:52:32.282Z,102592.38
2024-01-08T12:54:59.351Z,102583.59
2024-01-08T12:57:30.396Z,102583.59
2024-01-08T12:59:58.538Z,102591.53
2024-01-08T13:02:32.531Z,102595.00
2024-01-08T13:05:01.355Z,102595.91
2024-01-08T13:07:28.779Z,102599.41
2024-01-08T13:09:56.179Z,102603.81
2024-01-08T13:12:22.725Z,102595.03
2024-01-08T13:14:50.288Z,102600.31
2024-01-08T13:17:16.845Z,102616.16
2024-01-08T13:19:43.804Z,102614.38
2024-01-08T13:22:12.150Z,102613.50
2024-01-08T13:24:39.322Z,102624.88
2024-01-08T13:27:11.788Z,102616.13
2024-01-08T13:29:42.606Z,102616.13
2024-01-08T13:32:11.351Z,102625.78
2024-01-08T13:34:39.352Z,102623.16
2024-01-08T13:37:05.872Z,102625.78
2024-01-08T13:39:32.801Z,102636.34
2024-01-08T13:41:59.597Z,102636.34
2024-01-08T13:44:26.827Z,102650.41
2024-01-08T13:46:54.499Z,102660.06
2024-01-08T13:49:21.521Z,102645.13
2024-01-08T13:51:48.269Z,102653.94
2024-01-08T13:54:15.469Z,102657.47
2024-01-08T13:56:42.156Z,102662.72
2024-01-08T13:59:09.802Z,102670.66
2024-01-08T14:01:37.660Z,102680.34
2024-01-08T14:04:04.667Z,102675.06
2024-01-08T14:06:31.279Z,102679.44
2024-01-08T14:08:58.268Z,102675.94
2024-01-08T14:11:24.932Z,102679.44
2024-01-08T14:13:51.899Z,102682.97
2024-01-08T14:16:19.395Z,102685.63
2024-01-08T14:18:46.390Z,102694.41
2024-01-08T14:21:13.070Z,102695.28
2024-01-08T14:23:40.078Z,102693.50
2024-01-08T14:26:06.723Z,102704.03
2024-01-08T14:28:33.805Z,102700.53
2024-01-08T14:31:00.591Z,102704.91
2024-01-08T14:33:27.809Z,102709.31
2024-01-08T14:35:54.907Z,102711.97
2024-01-08T14:38:22.038Z,102711.06
2024-01-08T14:40:49.178Z,102711.03
2024-01-08T14:43:16.178Z,102715.50
2024-01-08T14:45:43.488Z,102709.38
2024-01-08T14:48:10.417Z,102713.75
2024-01-08T14:50:37.146Z,102717.28
2024-01-08T14:53:05.333Z,102723.44
2024-01-08T14:55:32.404Z,102726.97
2024-01-08T14:57:59.246Z,102718.19
2024-01-08T15:00:26.678Z,102720.81
2024-01-08T15:02:55.188Z,102729.63
2024-01-08T15:05:24.020Z,102720.81
2024-01-08T15:07:51.789Z,102722.56
2024-01-08T15:10:21.981Z,102725.16
2024-01-08T15:12:50.004Z,102729.59
2024-01-08T15:15:17.889Z,102733.06
2024-01-08T15:17:47.182Z,102735.56
2024-01-08T15:20:17.915Z,102729.47
2024-01-08T15:22:48.396Z,102731.25
2024-01-08T15:25:15.405Z,102739.13
2024-01-08T15:27:42.758Z,102736.53
2024-01-08T15:30:14.601Z,102733.03
2024-01-08T15:32:43.030Z,102733.91
2024-01-08T15:35:11.895Z,102733.94
2024-01-08T15:37:39.401Z,102730.44
2024-01-08T15:40:07.969Z,102734.81
2024-01-08T15:42:37.576Z,102736.59
2024-01-08T15:45:06.202Z,102742.75
2024-01-08T15:47:34.000Z,102748.84
2024-01-08T15:50:02.150Z,102741.88
2024-01-08T15:52:31.240Z,102746.25
2024-01-08T15:54:59.338Z,102745.41
2024-01-08T15:57:27.367Z,102750.63
2024-01-08T15:59:55.556Z,102748.91
2024-01-08T16:02:23.504Z,102749.78
2024-01-08T16:04:51.209Z,102753.31
2024-01-08T16:07:19.242Z,102748.94
2024-01-08T16:09:46.765Z,102745.41
2024-01-08T16:12:14.444Z,102746.25
2024-01-08T16:14:42.467Z,102755.97
2024-01-08T16:17:10.545Z,102750.72
2024-01-08T16:19:37.844Z,102756.88
2024-01-08T16:22:05.585Z,102752.47
2024-01-08T16:24:32.553Z,102770.09
2024-01-08T16:27:00.827Z,102766.53
2024-01-08T16:29:28.029Z,102767.47
2024-01-08T16:31:55.606Z,102768.34
2024-01-08T16:34:23.369Z,102765.72
2024-01-08T16:36:51.143Z,102770.97
2024-01-08T16:39:19.675Z,102773.63
2024-01-08T16:41:47.420Z,102779.81
2024-01-08T16:44:15.361Z,102786.81
2024-01-08T16:46:43.091Z,102797.38
2024-01-08T16:49:10.386Z,102803.50
2024-01-08T16:51:41.222Z,102806.91
2024-01-08T16:54:11.493Z,102806.84
2024-01-08T16:56:38.939Z,102809.44
2024-01-08T16:59:06.729Z,102803.34
2024-01-08T17:01:35.849Z,102804.16
2024-01-08T17:04:04.435Z,102813.06
2024-01-08T17:06:32.493Z,102822.00
2024-01-08T17:09:03.220Z,102825.50
2024-01-08T17:11:31.020Z,102825.44
2024-01-08T17:13:59.011Z,102827.09
2024-01-08T17:16:27.596Z,102825.31
2024-01-08T17:18:55.277Z,102826.16
2024-01-08T17:21:23.518Z,102835.06
2024-01-08T17:23:51.458Z,102837.53
2024-01-08T17:26:19.780Z,102838.19
2024-01-08T17:28:47.519Z,102838.13
2024-01-08T17:31:15.366Z,102837.97
2024-01-08T17:33:42.920Z,102844.41
2024-01-08T17:36:10.821Z,102834.03
2024-01-08T17:38:37.887Z,102843.50
2024-01-08T17:41:04.876Z,102835.63
2024-01-08T17:43:31.551Z,102838.16
2024-01-08T17:45:59.424Z,102838.13
2024-01-08T17:48:26.521Z,102837.94
2024-01-08T17:50:54.228Z,102836.56
2024-01-08T17:53:21.598Z,102834.63
2024-01-08T17:55:48.768Z,102846.97
2024-01-08T17:58:16.727Z,102842.63
2024-01-08T18:00:44.398Z,102850.59
2024-01-08T18:03:12.137Z,102847.97
2024-01-08T18:05:40.650Z,102849.59
2024-01-08T18:08:07.662Z,102861.31
2024-01-08T18:10:35.153Z,102857.03
2024-01-08T18:13:02.044Z,102865.91
2024-01-08T18:15:31.036Z,102860.66
2024-01-08T18:17:58.208Z,102867.69
2024-01-08T18:27:50.054Z,102885.91
2024-01-08T18:30:19.263Z,102895.53
2024-01-08T18:32:46.224Z,102887.00
2024-01-08T18:35:13.662Z,102900.13
2024-01-08T18:37:41.118Z,102900.03
2024-01-08T18:40:09.467Z,102907.97
2024-01-08T18:42:36.473Z,102909.63
2024-01-08T18:45:03.774Z,102901.56
2024-01-08T18:47:32.213Z,102908.78
2024-01-08T18:50:13.827Z,102906.91
2024-01-08T18:52:41.044Z,102914.91
2024-01-08T18:55:08.629Z,102912.59
2024-01-08T18:57:35.449Z,102913.50
2024-01-08T19:00:02.297Z,102920.56
2024-01-08T19:02:29.972Z,102916.94
2024-01-08T19:04:58.249Z,102926.53
2024-01-08T19:07:25.441Z,102930.78
2024-01-08T19:10:02.837Z,102944.03
2024-01-08T19:12:31.080Z,102944.13
2024-01-08T19:14:58.775Z,102941.38
2024-01-08T19:17:25.997Z,102951.19
2024-01-08T19:19:53.090Z,102955.66
2024-01-08T19:22:22.480Z,102957.38
2024-01-08T19:24:49.751Z,102955.59
2024-01-08T19:27:16.993Z,102959.13
2024-01-08T19:29:49.429Z,102965.47
2024-01-08T19:32:18.328Z,102969.00
2024-01-08T19:34:47.092Z,102971.63
2024-01-08T19:37:14.725Z,102963.50
2024-01-08T19:39:42.363Z,102972.50
2024-01-08T19:42:10.119Z,102964.38
2024-01-08T19:44:36.830Z,102962.63
2024-01-08T19:47:04.008Z,102964.44
2024-01-08T19:49:32.120Z,102966.19
2024-01-08T19:52:00.056Z,102962.91
2024-01-08T19:54:27.812Z,102962.69
2024-01-08T19:56:54.913Z,102965.50
2024-01-08T19:59:22.420Z,102965.50
2024-01-08T20:01:49.542Z,102975.28
2024-01-08T20:04:16.253Z,102969.06
2024-01-08T20:06:43.420Z,102977.91
2024-01-08T20:09:11.275Z,102977.94
2024-01-08T20:11:39.784Z,102977.94
2024-01-08T20:14:06.666Z,102968.13
2024-01-08T20:16:33.636Z,102970.66
2024-01-08T20:19:00.458Z,102971.72
2024-01-08T20:21:28.445Z,102977.00
2024-01-08T20:23:55.137Z,102984.78
2024-01-08T20:26:24.169Z,102971.66
2024-01-08T20:28:50.772Z,102985.75
2024-01-08T20:31:33.200Z,102982.25
2024-01-08T20:34:04.747Z,102974.25
2024-01-08T20:36:31.413Z,102983.69
2024-01-08T20:38:58.329Z,102977.94
2024-01-08T20:41:28.077Z,102995.25
2024-01-08T20:43:55.538Z,102986.75
2024-01-08T20:46:22.039Z,102988.06
2024-01-08T20:48:49.029Z,102992.59
2024-01-08T20:51:15.790Z,102996.19
2024-01-08T20:53:42.962Z,102992.66
2024-01-08T20:56:10.489Z,102996.38
2024-01-08T20:58:37.762Z,103000.63
2024-01-08T21:01:04.498Z,103000.59
2024-01-08T21:03:34.238Z,102997.00
2024-01-08T21:06:01.590Z,102998.00
2024-01-08T21:08:28.781Z,103007.59
2024-01-08T21:10:57.471Z,103014.75
2024-01-08T21:13:24.678Z,103013.03
2024-01-08T21:15:51.532Z,103014.72
2024-01-08T21:18:19.237Z,103015.22
2024-01-08T21:20:46.069Z,103016.25
2024-01-08T21:23:13.627Z,103011.66
2024-01-08T21:25:40.728Z,103019.97
2024-01-08T21:28:08.107Z,103023.88
2024-01-08T21:30:35.199Z,103029.66
2024-01-08T21:33:05.892Z,103025.31
2024-01-08T21:35:32.729Z,103024.81
2024-01-08T21:37:59.783Z,103018.56
2024-01-08T21:40:26.805Z,103028.44
2024-01-08T21:42:53.772Z,103024.78
2024-01-08T21:45:20.651Z,103033.09
2024-01-08T21:47:48.210Z,103028.03
2024-01-08T21:50:15.173Z,103034.78
2024-01-08T21:52:42.338Z,103024.50
2024-01-08T21:55:09.399Z,103031.34
2024-01-08T21:57:36.138Z,103032.44
2024-01-08T22:00:04.462Z,103033.81
2024-01-08T22:02:32.403Z,103037.41
2024-01-08T22:04:58.978Z,103040.25
2024-01-08T22:07:25.832Z,103040.22
2024-01-08T22:09:52.310Z,103042.03
2024-01-08T22:12:19.301Z,103041.22
2024-01-08T22:14:45.936Z,103046.19
2024-01-08T22:17:12.923Z,103046.22
2024-01-08T22:19:39.926Z,103037.25
2024-01-08T22:22:07.685Z,103049.31
2024-01-08T22:24:36.820Z,103051.56
2024-01-08T22:27:03.898Z,103053.06
2024-01-08T22:29:30.261Z,103051.94
2024-01-08T22:31:56.986Z,103044.41
2024-01-08T22:34:23.562Z,103049.63
2024-01-08T22:36:50.400Z,103048.59
2024-01-08T22:39:16.810Z,103039.47
2024-01-08T22:41:43.679Z,103043.75
2024-01-08T22:44:18.502Z,103041.25
2024-01-08T22:46:51.723Z,103040.59
2024-01-08T22:49:18.178Z,103040.88
2024-01-08T22:51:45.534Z,103041.53
2024-01-08T22:54:12.159Z,103044.69
2024-01-08T22:56:38.945Z,103036.34
2024-01-08T22:59:05.913Z,103043.34
2024-01-08T23:01:32.869Z,103037.03
2024-01-08T23:03:59.311Z,103044.34
2024-01-08T23:06:26.327Z,103042.06
2024-01-08T23:08:54.003Z,103045.22
2024-01-08T23:11:21.183Z,103044.69
2024-01-08T23:13:47.570Z,103044.41
2024-01-08T23:16:14.256Z,103054.56
2024-01-08T23:18:40.765Z,103048.75
2024-01-08T23:21:07.602Z,103041.66
2024-01-08T23:23:34.383Z,103048.84
2024-01-08T23:26:01.164Z,103037.31
2024-01-08T23:28:27.667Z,103046.00
2024-01-08T23:30:55.418Z,103047.78
2024-01-08T23:33:22.003Z,103040.91
2024-01-08T23:35:50.103Z,103044.47
2024-01-08T23:38:16.487Z,103040.97
2024-01-08T23:40:43.247Z,103043.59
2024-01-08T23:43:10.160Z,103040.84
2024-01-08T23:45:37.009Z,103042.94
2024-01-08T23:48:03.796Z,103038.81
2024-01-08T23:50:30.787Z,103048.28
2024-01-08T23:52:57.216Z,103043.13
2024-01-08T23:55:23.969Z,103048.03
2024-01-08T23:57:50.531Z,103041.84
